Impacts TAF Board INFO
IDs:

KSLC - Salt Lake City Intl, UT, US

Issued at 0536 UTC 03 Dec 2016
Updated at 0646 UTC 03 Dec 2016
Potential Impact None Slight Moderate High
Time0554Z 03/07Z 03/08Z 03/09Z 03/10Z 03/11Z 03/12Z 03/13Z 03/14Z 03/15Z 03/16Z 03/17Z 03/18Z 03/19Z
Type OBS PRVL PRVL PRVL PRVL PRVL PRVL PRVL PRVL PRVL PRVL PRVL PRVL PRVL
VIS 10 >6 >6 >6 >6 >6 >6 >6 >6 >6 >6 >6 >6 >6
CIG -- -- -- -- -- -- -- -- -- -- 70 70 70 70
Cover FEW SCT SCT SCT SCT SCT SCT SCT SCT SCT BKN BKN BKN BKN
FltCat VFR VFR VFR VFR VFR VFR VFR VFR VFR VFR VFR VFR VFR VFR
WX -- -- -- -- -- -- -- -- -- -- -- -- -- --
WDir 180 150 150 150 150 150 150 150 150 150 150 150 150 150
WSpd 4 5 5 5 5 5 5 5 5 5 6 6 6 6
WGst -- -- -- -- -- -- -- -- -- -- -- -- -- --

Raw TAF
KSLC 030536Z 0306/0412 15005KT P6SM FEW100 SCT150
  FM031600 15006KT P6SM FEW050 BKN070
  FM032100 34005KT P6SM SCT070
  FM040300 15006KT P6SM FEW060 SCT100


Raw METAR
KSLC 030554Z 18004KT 10SM FEW030 M03/M07 A3029 RMK AO2 SLP274 T10281072 10011 21028 53000
KSLC 030454Z 13005KT 10SM CLR M03/M06 A3028 RMK AO2 SLP274 T10281061
KSLC 030354Z 22004KT 10SM CLR M02/M05 A3028 RMK AO2 SLP273 T10221050

METAR Board
Radar Display
Forecast Discussion